Time;durP1;ratioP1;P1;durP2;ratioP2;P2;SDS_P1;SDS_P2;PMS_P1;PMS_P2;Temp;Humidity;BMP_temperature;BMP_pressure;BME280_temperature;BME280_humidity;BME280_pressure;Samples;Min_cycle;Max_cycle;Signal;HPM_P1;HPM_P2
2022/07/14 00:02:24;;;;;;;7.28;2.00;;;14.20;99.90;;;;;;6147091;23;20013;-92
2022/07/14 00:05:07;;;;;;;10.43;1.88;;;14.20;99.90;;;;;;6170262;23;20079;-92
2022/07/14 00:07:35;;;;;;;9.55;2.40;;;14.20;99.90;;;;;;6171954;23;20024;-92
2022/07/14 00:10:01;;;;;;;8.10;2.45;;;14.20;99.90;;;;;;6173306;23;20290;-92
2022/07/14 00:12:30;;;;;;;6.78;1.95;;;13.50;99.90;;;;;;6198591;23;20016;-92
2022/07/14 00:14:56;;;;;;;9.18;2.42;;;13.30;99.90;;;;;;6173874;23;20035;-93
2022/07/14 00:17:31;;;;;;;10.65;2.40;;;14.20;99.90;;;;;;6197193;23;20012;-91
2022/07/14 00:19:58;;;;;;;9.40;2.53;;;14.00;99.90;;;;;;6197741;23;20008;-93
2022/07/14 00:22:24;;;;;;;10.05;2.58;;;14.10;99.90;;;;;;6179901;23;20069;-92
2022/07/14 00:24:50;;;;;;;10.75;2.50;;;13.90;99.90;;;;;;6199603;23;20016;-92
2022/07/14 00:27:16;;;;;;;8.27;2.58;;;14.00;99.90;;;;;;6172608;23;20023;-92
2022/07/14 00:29:42;;;;;;;7.55;2.10;;;14.00;99.90;;;;;;6171625;23;20023;-92
2022/07/14 00:32:08;;;;;;;7.28;2.15;;;14.00;99.90;;;;;;6174563;23;20047;-92
2022/07/14 00:34:37;;;;;;;7.57;2.08;;;14.00;99.90;;;;;;6203076;23;20016;-94
2022/07/14 00:37:12;;;;;;;9.15;2.65;;;14.00;99.90;;;;;;6180837;23;20016;-92
2022/07/14 00:39:56;;;;;;;9.60;2.30;;;13.40;99.90;;;;;;6201209;23;20012;-92
2022/07/14 00:42:28;;;;;;;9.95;2.80;;;14.10;99.90;;;;;;6197844;23;20398;-92
2022/07/14 00:44:58;;;;;;;6.25;2.20;;;14.10;99.90;;;;;;6197962;23;20389;-93
2022/07/14 00:47:24;;;;;;;6.18;2.30;;;14.00;99.90;;;;;;6175199;23;20040;-93
2022/07/14 00:49:55;;;;;;;10.98;3.22;;;14.00;99.90;;;;;;6200355;23;20095;-93
2022/07/14 00:52:26;;;;;;;9.77;3.05;;;14.00;99.90;;;;;;6174640;23;20031;-93
2022/07/14 00:54:53;;;;;;;10.93;3.72;;;14.00;99.90;;;;;;6197928;23;20027;-92
2022/07/14 00:57:19;;;;;;;8.43;3.35;;;14.00;99.90;;;;;;6172268;23;20012;-92
2022/07/14 00:59:47;;;;;;;10.20;3.60;;;13.90;99.90;;;;;;6173782;23;20400;-94
2022/07/14 01:02:16;;;;;;;12.30;3.95;;;13.90;99.90;;;;;;6199087;23;20030;-93
2022/07/14 01:04:41;;;;;;;15.27;3.75;;;13.70;99.90;;;;;;6177801;23;20039;-93
2022/07/14 01:07:10;;;;;;;11.07;3.58;;;13.80;99.90;;;;;;6176470;23;20024;-93
2022/07/14 01:09:36;;;;;;;10.23;3.20;;;13.80;99.90;;;;;;6199938;23;20103;-93
2022/07/14 01:12:03;;;;;;;10.68;3.25;;;13.70;99.90;;;;;;6201695;23;20019;-92
2022/07/14 01:14:39;;;;;;;12.20;3.45;;;13.70;99.90;;;;;;6176121;23;20089;-93
2022/07/14 01:17:07;;;;;;;7.70;3.20;;;13.70;99.90;;;;;;6198530;23;20069;-92
2022/07/14 01:19:43;;;;;;;9.43;3.40;;;13.80;99.90;;;;;;6208348;23;20036;-92
2022/07/14 01:22:13;;;;;;;7.80;3.58;;;13.70;99.90;;;;;;6203544;23;20016;-92
2022/07/14 01:24:45;;;;;;;7.30;2.72;;;13.70;99.90;;;;;;6205102;23;20511;-92
2022/07/14 01:27:11;;;;;;;7.20;2.50;;;13.70;99.90;;;;;;6205045;23;20027;-92
2022/07/14 01:29:40;;;;;;;8.90;2.70;;;13.40;99.90;;;;;;6207425;23;20456;-93
2022/07/14 01:32:06;;;;;;;9.70;2.47;;;13.70;99.90;;;;;;6179871;23;20023;-92
2022/07/14 01:34:32;;;;;;;8.57;2.78;;;13.70;99.90;;;;;;6206815;23;20016;-92
2022/07/14 01:36:58;;;;;;;6.57;2.20;;;13.70;99.90;;;;;;6173555;23;20115;-93
2022/07/14 01:39:24;;;;;;;6.35;2.78;;;13.60;99.90;;;;;;6205145;23;20020;-92
2022/07/14 01:42:08;;;;;;;8.48;2.47;;;13.50;99.90;;;;;;6177339;23;20020;-92
2022/07/14 01:44:34;;;;;;;7.68;2.72;;;13.50;99.90;;;;;;6199498;23;20095;-93
2022/07/14 01:47:00;;;;;;;9.57;3.25;;;13.40;99.90;;;;;;6175407;23;20342;-92
2022/07/14 01:49:29;;;;;;;8.25;3.85;;;13.30;99.90;;;;;;6203167;23;20446;-91
2022/07/14 01:51:55;;;;;;;12.85;4.38;;;13.40;99.90;;;;;;6209837;23;20016;-92
2022/07/14 01:55:05;;;;;;;11.20;4.60;;;13.40;99.90;;;;;;6187561;23;20023;-93
2022/07/14 02:00:40;;;;;;;13.05;4.55;;;12.60;99.90;;;;;;6104508;23;20020;-92
2022/07/14 02:03:06;;;;;;;12.85;5.53;;;13.40;99.90;;;;;;6194814;23;20012;-91
2022/07/14 02:05:38;;;;;;;13.07;4.90;;;13.40;99.90;;;;;;6175853;23;20396;-92
2022/07/14 02:08:08;;;;;;;11.13;4.25;;;13.80;99.90;;;;;;6203261;23;20078;-92
2022/07/14 02:13:38;;;;;;;;;;;;;;;;;;;;;
2022/07/14 02:16:18;;;;;;;11.98;5.15;;;13.30;99.90;;;;;;6235449;23;20100;-91
2022/07/14 02:19:04;;;;;;;9.70;4.25;;;13.30;99.90;;;;;;6178640;23;20087;-92
2022/07/14 02:21:40;;;;;;;11.98;5.00;;;13.30;99.90;;;;;;6159987;23;20012;-91
2022/07/14 02:24:08;;;;;;;11.15;4.70;;;13.30;99.90;;;;;;6199739;23;20008;-92
2022/07/14 02:26:37;;;;;;;11.95;4.78;;;13.30;99.90;;;;;;6197969;23;20382;-92
2022/07/14 02:29:16;;;;;;;11.00;4.85;;;13.20;99.90;;;;;;6201456;23;20047;-92
2022/07/14 02:31:46;;;;;;;9.35;3.65;;;13.20;99.90;;;;;;6202868;23;20012;-91
2022/07/14 02:34:12;;;;;;;9.20;3.47;;;13.20;99.90;;;;;;6198291;23;20016;-92
2022/07/14 02:36:53;;;;;;;14.55;4.03;;;13.10;99.90;;;;;;6180782;23;20020;-91
2022/07/14 02:39:19;;;;;;;7.82;3.70;;;13.10;99.90;;;;;;6175208;23;20008;-92
2022/07/14 02:41:49;;;;;;;8.68;2.92;;;13.00;99.90;;;;;;6199157;23;20043;-92
2022/07/14 02:44:17;;;;;;;11.20;3.40;;;13.00;99.90;;;;;;6198269;23;20062;-92
2022/07/14 02:46:43;;;;;;;7.82;3.60;;;13.10;99.90;;;;;;6198005;23;20016;-92
2022/07/14 02:49:11;;;;;;;9.50;2.97;;;13.10;99.90;;;;;;6197414;23;20477;-92
2022/07/14 02:51:37;;;;;;;8.60;3.47;;;13.10;99.90;;;;;;6199637;23;20047;-92
2022/07/14 02:54:04;;;;;;;7.85;3.40;;;13.00;99.90;;;;;;6204971;23;20012;-92
2022/07/14 02:56:30;;;;;;;6.97;3.38;;;13.10;99.90;;;;;;6176613;23;20042;-92
2022/07/14 02:58:56;;;;;;;9.95;4.10;;;13.00;99.90;;;;;;6175399;23;20031;-93
2022/07/14 03:01:22;;;;;;;8.93;3.72;;;13.10;99.90;;;;;;6199191;23;20012;-93
2022/07/14 03:03:49;;;;;;;10.75;4.20;;;13.10;99.90;;;;;;6206648;23;20012;-93
2022/07/14 03:06:17;;;;;;;8.88;4.50;;;13.10;99.90;;;;;;6165579;23;20052;-92
2022/07/14 03:08:44;;;;;;;7.80;4.03;;;13.00;99.90;;;;;;6169717;23;20066;-92
2022/07/14 03:11:10;;;;;;;9.70;4.53;;;13.00;99.90;;;;;;6172445;23;20008;-93
2022/07/14 03:13:36;;;;;;;11.07;4.55;;;13.00;99.90;;;;;;6145484;23;20019;-93
2022/07/14 03:16:03;;;;;;;11.82;5.53;;;13.00;99.90;;;;;;6196545;23;20016;-92
2022/07/14 03:18:29;;;;;;;8.13;4.65;;;12.30;99.90;;;;;;6172069;23;20063;-92
2022/07/14 03:20:55;;;;;;;10.60;5.05;;;12.90;99.90;;;;;;6173120;23;20012;-93
2022/07/14 03:23:21;;;;;;;10.60;4.35;;;12.90;99.90;;;;;;6174766;23;20018;-92
2022/07/14 03:25:48;;;;;;;10.00;4.18;;;12.90;99.90;;;;;;6176676;23;20012;-92
2022/07/14 03:28:23;;;;;;;10.35;4.60;;;12.80;99.90;;;;;;6149491;23;20043;-92
2022/07/14 03:31:23;;;;;;;;;;;;;;;;;;;;;
2022/07/14 03:34:21;;;;;;;9.50;3.42;;;13.00;99.90;;;;;;6239418;23;20080;-92
2022/07/14 03:36:49;;;;;;;9.13;3.78;;;13.00;99.90;;;;;;6167225;23;20052;-93
2022/07/14 03:39:15;;;;;;;7.68;4.20;;;12.90;99.90;;;;;;6173232;23;20013;-93
2022/07/14 03:41:44;;;;;;;8.95;3.35;;;13.00;99.90;;;;;;6208271;23;19996;-93
2022/07/14 03:44:25;;;;;;;7.05;3.20;;;13.00;99.90;;;;;;6227742;23;20008;-92
2022/07/14 03:46:51;;;;;;;5.13;2.25;;;13.00;99.90;;;;;;6157187;23;20024;-91
2022/07/14 03:49:20;;;;;;;4.43;2.47;;;12.70;99.90;;;;;;6148558;23;20049;-93
2022/07/14 03:51:46;;;;;;;6.43;2.35;;;11.90;99.90;;;;;;6148231;23;20017;-93
2022/07/14 03:54:12;;;;;;;8.18;3.08;;;12.70;99.90;;;;;;6145691;23;20035;-93
2022/07/14 03:56:38;;;;;;;6.10;2.70;;;12.60;99.90;;;;;;6171095;23;20017;-94
2022/07/14 03:59:05;;;;;;;9.55;3.33;;;12.60;99.90;;;;;;6195997;23;20063;-93
2022/07/14 04:01:50;;;;;;;6.43;2.70;;;12.10;99.90;;;;;;6174356;23;20009;-93
2022/07/14 04:04:24;;;;;;;8.82;3.00;;;12.90;99.90;;;;;;6177015;23;20091;-93
2022/07/14 04:06:50;;;;;;;5.65;2.85;;;12.80;99.90;;;;;;6137998;23;20053;-93
2022/07/14 04:09:15;;;;;;;7.43;3.05;;;12.80;99.90;;;;;;6174955;23;20016;-92
2022/07/14 04:11:41;;;;;;;6.63;3.17;;;12.80;99.90;;;;;;6172814;23;20052;-93
2022/07/14 04:14:07;;;;;;;9.85;2.97;;;12.90;99.90;;;;;;6173049;23;20016;-93
2022/07/14 04:16:33;;;;;;;8.98;2.85;;;12.90;99.90;;;;;;6175523;23;20016;-93
2022/07/14 04:19:22;;;;;;;9.73;3.17;;;12.90;99.90;;;;;;6197830;23;20012;-93
2022/07/14 04:21:49;;;;;;;8.07;3.72;;;12.90;99.90;;;;;;6201746;23;20031;-93
2022/07/14 04:24:18;;;;;;;9.73;4.05;;;13.00;99.90;;;;;;6177202;23;20012;-93
2022/07/14 04:26:44;;;;;;;12.55;4.15;;;13.00;99.90;;;;;;6175083;23;20016;-93
2022/07/14 04:29:10;;;;;;;5.80;3.90;;;13.10;99.90;;;;;;6173484;23;20023;-93
2022/07/14 04:31:37;;;;;;;6.00;3.63;;;13.00;99.90;;;;;;6177577;23;20073;-93
2022/07/14 04:34:06;;;;;;;9.43;3.83;;;12.40;99.90;;;;;;6227255;23;20012;-93
2022/07/14 04:36:32;;;;;;;12.00;4.22;;;12.10;99.90;;;;;;6184148;23;20024;-93
2022/07/14 04:39:11;;;;;;;9.55;3.70;;;13.00;99.90;;;;;;6242270;23;20027;-94
2022/07/14 04:41:38;;;;;;;8.00;3.90;;;13.10;99.90;;;;;;6204685;23;20012;-94
2022/07/14 04:44:04;;;;;;;7.10;3.40;;;12.20;99.90;;;;;;6180424;23;20016;-93
2022/07/14 04:46:32;;;;;;;6.53;3.08;;;13.20;99.90;;;;;;6203370;23;20039;-92
2022/07/14 04:52:04;;;;;;;8.02;3.53;;;13.30;99.90;;;;;;6211853;23;20114;-94
2022/07/14 04:54:32;;;;;;;7.47;3.47;;;13.40;99.90;;;;;;6210936;23;20045;-94
2022/07/14 04:57:03;;;;;;;7.13;3.28;;;13.40;99.90;;;;;;6207659;23;20016;-93
2022/07/14 04:59:30;;;;;;;5.93;3.13;;;13.50;99.90;;;;;;6208162;23;20020;-93
2022/07/14 05:01:57;;;;;;;8.30;3.58;;;13.60;99.90;;;;;;6208330;23;20012;-93
2022/07/14 05:04:24;;;;;;;10.45;3.60;;;14.40;99.90;;;;;;6214482;23;20087;-93
2022/07/14 05:06:51;;;;;;;6.22;3.45;;;13.80;99.90;;;;;;6195393;23;20004;-93
2022/07/14 05:10:26;;;;;;;;;;;;;;;;;;;;;
2022/07/14 05:17:58;;;;;;;12.25;3.85;;;14.30;99.90;;;;;;5973554;24;20463;-93
2022/07/14 05:21:18;;;;;;;8.32;3.83;;;13.80;99.90;;;;;;5891168;24;20075;-93
2022/07/14 05:24:18;;;;;;;8.00;3.40;;;14.10;99.90;;;;;;5937799;24;20022;-93
2022/07/14 05:26:44;;;;;;;7.55;3.40;;;14.40;99.90;;;;;;5975872;23;20052;-93
2022/07/14 05:29:42;;;;;;;8.93;3.47;;;14.40;99.90;;;;;;5999821;23;20023;-93
2022/07/14 05:32:18;;;;;;;11.23;3.42;;;14.40;99.90;;;;;;6132202;23;20023;-93
2022/07/14 05:34:46;;;;;;;8.65;3.53;;;14.40;99.90;;;;;;6154193;23;20072;-93
2022/07/14 05:37:19;;;;;;;8.43;3.03;;;14.50;99.90;;;;;;6175892;23;20435;-93
2022/07/14 05:39:56;;;;;;;9.50;3.80;;;14.40;99.90;;;;;;6185042;23;20016;-93
2022/07/14 05:42:25;;;;;;;10.60;3.10;;;14.50;99.90;;;;;;6164485;23;20013;-93
2022/07/14 05:44:51;;;;;;;6.93;3.08;;;14.50;99.90;;;;;;6161111;23;20047;-93
2022/07/14 05:47:23;;;;;;;6.70;2.70;;;14.60;99.90;;;;;;6160624;23;20017;-92
2022/07/14 05:49:49;;;;;;;6.78;1.83;;;14.70;99.90;;;;;;6132790;23;20013;-92
2022/07/14 05:52:19;;;;;;;5.30;2.13;;;14.70;99.90;;;;;;6155729;23;20022;-92
2022/07/14 05:56:07;;;;;;;;;;;;;;;;;;;;;
2022/07/14 05:59:17;;;;;;;5.68;1.60;;;14.90;99.90;;;;;;6177303;23;20020;-91
2022/07/14 06:01:52;;;;;;;4.55;1.33;;;14.90;99.90;;;;;;6175448;23;20016;-92
2022/07/14 06:04:47;;;;;;;5.22;1.27;;;15.00;99.90;;;;;;6179320;23;20024;-92
2022/07/14 06:30:08;;;;;;;6.03;1.30;;;15.90;99.90;;;;;;6250080;22;20020;-91
2022/07/14 06:32:36;;;;;;;8.18;1.73;;;16.10;99.90;;;;;;6199676;23;20091;-92
2022/07/14 06:35:29;;;;;;;6.65;1.58;;;16.20;99.90;;;;;;6210537;23;20085;-92
2022/07/14 06:37:55;;;;;;;5.10;1.35;;;16.30;99.90;;;;;;6178739;23;20058;-92
2022/07/14 06:44:35;;;;;;;6.65;1.42;;;16.90;99.90;;;;;;6139341;23;20052;-92
2022/07/14 06:47:01;;;;;;;2.90;1.10;;;16.20;99.90;;;;;;6063371;23;20014;-94
2022/07/14 06:49:27;;;;;;;5.65;1.67;;;16.60;99.90;;;;;;6060319;23;20041;-93
2022/07/14 06:51:53;;;;;;;6.15;1.10;;;16.90;99.90;;;;;;6118856;23;20043;-93
2022/07/14 06:54:19;;;;;;;3.17;1.20;;;17.00;99.90;;;;;;6175176;23;20350;-93
2022/07/14 06:56:50;;;;;;;3.10;0.82;;;17.30;99.90;;;;;;6193183;23;20008;-92
2022/07/14 06:59:38;;;;;;;4.43;1.20;;;17.40;99.90;;;;;;6140068;23;20036;-93
2022/07/14 07:02:09;;;;;;;4.40;1.00;;;17.60;99.90;;;;;;6180815;23;20016;-93
2022/07/14 07:04:35;;;;;;;3.95;1.00;;;17.10;99.90;;;;;;6170211;23;20082;-92
2022/07/14 07:07:08;;;;;;;6.50;1.02;;;16.80;99.90;;;;;;6181543;23;20012;-94
2022/07/14 07:17:21;;;;;;;3.50;0.73;;;17.80;99.90;;;;;;6158465;22;20051;-95
2022/07/14 07:19:53;;;;;;;3.92;1.17;;;17.70;99.90;;;;;;6201862;22;20041;-94
2022/07/14 07:26:00;;;;;;;2.83;0.88;;;18.20;99.90;;;;;;6234835;23;20469;-95
2022/07/14 07:29:20;;;;;;;3.65;0.68;;;17.70;99.90;;;;;;6150000;23;20059;-95
2022/07/14 07:31:33;;;;;;;4.07;0.70;;;17.60;99.90;;;;;;6152862;23;20016;-93
2022/07/14 07:34:02;;;;;;;2.28;0.70;;;17.90;99.90;;;;;;6152006;23;20020;-93
2022/07/14 07:36:49;;;;;;;2.22;1.42;;;17.70;99.90;;;;;;6151333;23;20121;-95
2022/07/14 07:39:39;;;;;;;4.13;0.90;;;17.40;99.90;;;;;;6156461;23;20092;-95
2022/07/14 07:42:05;;;;;;;3.50;0.80;;;17.70;99.90;;;;;;6184801;23;20027;-95
2022/07/14 07:44:32;;;;;;;2.95;0.50;;;17.70;99.90;;;;;;6156545;23;20107;-96
2022/07/14 07:50:56;;;;;;;3.85;0.70;;;17.80;99.90;;;;;;6223767;23;20031;-96
2022/07/14 07:54:01;;;;;;;6.88;0.90;;;18.30;99.90;;;;;;6200568;23;20019;-95
2022/07/14 07:56:45;;;;;;;;;;;;;;;;;;;;;
2022/07/14 07:59:23;;;;;;;2.63;0.93;;;18.70;99.90;;;;;;6194403;22;20014;-93
2022/07/14 08:05:31;;;;;;;3.10;0.90;;;19.10;99.90;;;;;;6285499;22;20010;-95
2022/07/14 08:07:57;;;;;;;1.85;0.70;;;18.90;99.90;;;;;;6232302;22;20018;-94
2022/07/14 08:10:23;;;;;;;3.28;0.70;;;19.20;99.90;;;;;;6234547;22;20077;-96
2022/07/14 08:12:49;;;;;;;2.47;0.73;;;19.50;99.90;;;;;;6234253;22;20094;-95
2022/07/14 08:18:57;;;;;;;1.25;0.47;;;19.90;99.90;;;;;;6287388;22;20046;-95
2022/07/14 08:21:23;;;;;;;1.50;0.55;;;19.80;99.90;;;;;;6240311;22;20015;-96
2022/07/14 08:24:18;;;;;;;2.55;0.65;;;19.40;99.90;;;;;;6217093;22;20020;-96
2022/07/14 08:30:25;;;;;;;1.38;0.60;;;19.40;99.90;;;;;;6159103;22;20018;-93
2022/07/14 08:32:57;;;;;;;1.20;0.68;;;19.40;99.90;;;;;;6235863;22;20012;-93
2022/07/14 08:38:45;;;;;;;3.30;0.70;;;19.90;99.90;;;;;;6259204;22;20358;-95
2022/07/14 08:41:15;;;;;;;2.15;0.75;;;19.40;99.90;;;;;;6209062;22;20019;-96
2022/07/14 08:43:42;;;;;;;1.35;0.65;;;19.70;99.90;;;;;;6232145;22;20066;-94
2022/07/14 08:46:08;;;;;;;2.00;0.57;;;19.60;99.90;;;;;;6234845;22;20023;-92
2022/07/14 08:48:40;;;;;;;4.00;0.80;;;19.70;99.90;;;;;;6237434;22;20012;-96
2022/07/14 08:51:08;;;;;;;3.88;0.70;;;19.30;99.90;;;;;;6213774;22;20046;-95
2022/07/14 08:53:36;;;;;;;3.17;0.82;;;19.60;99.90;;;;;;6213879;22;20090;-96
2022/07/14 08:56:05;;;;;;;2.88;0.93;;;19.20;99.90;;;;;;6232652;22;20018;-95
2022/07/14 09:02:53;;;;;;;4.63;1.27;;;19.20;99.90;;;;;;6131424;23;20017;-96
2022/07/14 09:05:19;;;;;;;2.53;0.85;;;19.40;99.90;;;;;;6186000;22;20468;-95
2022/07/14 09:07:53;;;;;;;2.10;0.80;;;19.50;99.90;;;;;;6236300;22;20016;-96
2022/07/14 09:10:24;;;;;;;3.60;1.30;;;19.30;99.90;;;;;;6235000;22;20105;-93
2022/07/14 09:13:08;;;;;;;2.13;0.82;;;19.40;99.90;;;;;;6235078;22;20015;-96
2022/07/14 09:15:46;;;;;;;1.05;0.60;;;19.60;99.90;;;;;;6232816;22;20094;-92
2022/07/14 09:18:28;;;;;;;2.97;0.60;;;19.90;99.90;;;;;;6212188;23;20385;-96
2022/07/14 09:21:17;;;;;;;6.60;0.75;;;19.80;99.90;;;;;;6202912;23;20450;-95
2022/07/14 09:23:44;;;;;;;1.38;0.70;;;19.90;99.90;;;;;;6226510;23;20019;-95
2022/07/14 09:26:15;;;;;;;2.55;0.80;;;19.50;99.90;;;;;;6202950;23;20124;-96
2022/07/14 09:28:47;;;;;;;3.20;1.00;;;19.30;99.90;;;;;;6227737;23;20008;-95
2022/07/14 09:31:22;;;;;;;1.90;0.70;;;19.20;99.90;;;;;;6203617;23;20016;-96
2022/07/14 09:33:56;;;;;;;0.82;0.52;;;19.40;99.90;;;;;;6236363;23;20004;-94
2022/07/14 09:36:26;;;;;;;1.55;0.80;;;19.90;99.90;;;;;;6230785;23;20012;-95
2022/07/14 09:38:57;;;;;;;1.92;0.70;;;20.10;99.90;;;;;;6229279;23;20047;-96
2022/07/14 09:41:26;;;;;;;3.30;0.98;;;20.50;99.90;;;;;;6235630;23;19996;-96
2022/07/14 09:44:10;;;;;;;3.33;0.95;;;20.60;99.90;;;;;;6236709;23;20016;-96
2022/07/14 09:46:56;;;;;;;1.98;0.60;;;20.80;99.90;;;;;;6233864;23;20469;-96
2022/07/14 09:49:32;;;;;;;2.28;0.70;;;20.90;99.90;;;;;;6229792;23;20012;-94
2022/07/14 09:52:04;;;;;;;2.53;0.70;;;20.50;99.90;;;;;;6253253;23;20023;-96
2022/07/14 09:54:49;;;;;;;2.25;0.70;;;20.30;99.90;;;;;;6236719;23;20085;-95
2022/07/14 09:57:15;;;;;;;2.80;0.80;;;20.60;99.90;;;;;;6232840;23;20016;-96
2022/07/14 09:59:55;;;;;;;1.27;0.75;;;20.90;99.90;;;;;;6257132;23;20008;-94
2022/07/14 10:02:21;;;;;;;2.45;0.77;;;20.70;99.90;;;;;;6231908;23;20018;-96
2022/07/14 10:04:50;;;;;;;1.60;0.90;;;20.40;99.90;;;;;;6229190;23;20035;-96
2022/07/14 10:07:28;;;;;;;2.15;0.70;;;20.80;99.90;;;;;;6262242;22;20016;-96
2022/07/14 10:10:12;;;;;;;1.52;0.80;;;21.20;99.90;;;;;;6231203;23;20008;-95
2022/07/14 10:12:41;;;;;;;1.10;0.60;;;20.80;99.90;;;;;;6227729;23;20091;-93
2022/07/14 10:15:09;;;;;;;3.15;0.80;;;20.60;99.90;;;;;;6226889;23;20012;-95
2022/07/14 10:21:45;;;;;;;3.00;0.70;;;21.10;99.90;;;;;;6289411;22;20440;-96
2022/07/14 10:24:12;;;;;;;3.20;0.77;;;20.80;99.90;;;;;;6217855;22;20062;-96
2022/07/14 10:26:41;;;;;;;2.08;0.65;;;21.20;99.90;;;;;;6233934;22;20016;-95
2022/07/14 10:29:12;;;;;;;2.63;0.80;;;21.20;99.90;;;;;;6260979;22;20022;-95
2022/07/14 10:31:47;;;;;;;1.13;0.60;;;21.20;99.90;;;;;;6232572;22;20022;-93
2022/07/14 10:34:52;;;;;;;1.58;0.70;;;20.80;99.90;;;;;;6231672;22;20517;-95
2022/07/14 10:37:43;;;;;;;3.60;0.73;;;20.50;99.90;;;;;;6260253;22;20008;-96
2022/07/14 10:40:33;;;;;;;4.05;0.98;;;20.50;99.90;;;;;;6235358;22;20468;-94
2022/07/14 10:43:24;;;;;;;2.08;0.75;;;21.30;99.90;;;;;;6239469;22;20026;-96
2022/07/14 10:46:03;;;;;;;2.97;0.82;;;21.30;99.90;;;;;;6291050;22;20007;-95
2022/07/14 10:48:36;;;;;;;2.67;0.70;;;20.90;99.90;;;;;;6211834;22;20016;-96
2022/07/14 10:51:21;;;;;;;1.15;0.60;;;20.80;99.90;;;;;;6235586;22;20019;-94
2022/07/14 10:53:59;;;;;;;2.45;0.77;;;20.30;99.90;;;;;;6233116;22;20042;-95
2022/07/14 10:56:30;;;;;;;1.17;0.70;;;20.20;99.90;;;;;;6232128;22;20033;-94
2022/07/14 10:59:27;;;;;;;2.70;0.70;;;20.10;99.90;;;;;;6257230;22;20016;-94
2022/07/14 11:02:13;;;;;;;1.40;0.70;;;19.80;99.90;;;;;;6230728;22;20342;-96
2022/07/14 11:05:01;;;;;;;2.05;0.82;;;19.80;99.90;;;;;;6232489;22;20046;-95
2022/07/14 11:07:46;;;;;;;2.10;0.70;;;19.70;99.90;;;;;;6233184;22;20022;-93
2022/07/14 11:10:14;;;;;;;2.17;0.68;;;19.80;99.90;;;;;;6204757;22;20022;-93
2022/07/14 11:12:59;;;;;;;1.67;0.80;;;19.70;99.90;;;;;;6227493;22;20453;-94
2022/07/14 11:15:58;;;;;;;1.65;0.80;;;19.80;99.90;;;;;;6228034;22;20393;-93
2022/07/14 11:18:27;;;;;;;1.13;0.65;;;19.80;99.90;;;;;;6227839;22;20016;-95
2022/07/14 11:21:07;;;;;;;1.65;0.60;;;19.90;99.90;;;;;;6230028;22;20461;-95
2022/07/14 11:23:51;;;;;;;2.58;1.15;;;19.60;99.90;;;;;;6227879;22;20333;-93
2022/07/14 11:26:34;;;;;;;2.50;0.77;;;19.60;99.90;;;;;;6227099;22;20011;-94
2022/07/14 11:29:03;;;;;;;4.40;0.90;;;19.80;99.90;;;;;;6226235;22;20011;-94
2022/07/14 11:31:49;;;;;;;3.92;0.93;;;19.80;99.90;;;;;;6203985;22;20011;-92
2022/07/14 11:37:19;;;;;;;1.92;0.73;;;20.30;99.90;;;;;;6232245;22;20015;-96
2022/07/14 11:39:49;;;;;;;3.33;0.88;;;20.70;99.90;;;;;;6210058;22;20015;-96
2022/07/14 11:42:17;;;;;;;2.50;0.80;;;21.20;99.90;;;;;;6211226;22;20050;-94
2022/07/14 11:44:46;;;;;;;1.83;0.70;;;22.00;99.90;;;;;;6257039;22;20062;-94
2022/07/14 11:47:29;;;;;;;3.72;0.70;;;21.70;99.90;;;;;;6239680;22;20012;-94
2022/07/14 11:50:01;;;;;;;0.93;0.60;;;21.20;99.90;;;;;;6233088;22;20034;-95
2022/07/14 11:52:48;;;;;;;0.60;0.50;;;21.00;99.90;;;;;;6229357;22;20015;-96
2022/07/14 11:55:14;;;;;;;2.03;0.70;;;21.40;99.90;;;;;;6227337;22;20012;-91
2022/07/14 11:57:51;;;;;;;1.17;0.70;;;21.40;99.90;;;;;;6227538;22;20047;-93
2022/07/14 12:00:17;;;;;;;1.90;0.90;;;21.00;99.90;;;;;;6227432;22;20026;-93
2022/07/14 12:02:55;;;;;;;4.28;1.00;;;21.00;99.90;;;;;;6203021;22;20020;-94
2022/07/14 12:05:22;;;;;;;2.47;0.80;;;21.00;99.90;;;;;;6228220;22;20011;-95
2022/07/14 12:07:51;;;;;;;3.03;0.80;;;21.00;99.90;;;;;;6203970;22;20016;-93
2022/07/14 12:10:37;;;;;;;1.75;0.63;;;20.70;99.90;;;;;;6228509;22;20016;-94
2022/07/14 12:13:03;;;;;;;4.07;1.10;;;20.70;99.90;;;;;;6228532;22;20102;-93
2022/07/14 12:15:30;;;;;;;4.28;1.13;;;20.20;99.90;;;;;;6229616;22;20047;-93
2022/07/14 12:18:00;;;;;;;2.83;0.90;;;19.90;99.90;;;;;;6228508;22;20018;-95
2022/07/14 12:20:34;;;;;;;2.65;0.85;;;19.80;99.90;;;;;;6202776;22;20091;-95
2022/07/14 12:23:00;;;;;;;3.42;1.00;;;19.60;99.90;;;;;;6227821;22;20012;-94
2022/07/14 12:25:34;;;;;;;4.95;1.10;;;19.30;99.90;;;;;;6202846;22;20380;-92
2022/07/14 12:28:05;;;;;;;2.90;0.80;;;19.30;99.90;;;;;;6239738;22;20090;-94
2022/07/14 12:30:50;;;;;;;2.25;0.80;;;19.20;99.90;;;;;;6238455;22;20015;-95
2022/07/14 12:33:22;;;;;;;2.53;0.90;;;19.30;99.90;;;;;;6242522;22;20015;-94
2022/07/14 12:35:54;;;;;;;3.40;1.35;;;19.80;99.90;;;;;;6234954;22;20035;-96
2022/07/14 12:38:22;;;;;;;3.45;1.00;;;20.70;99.90;;;;;;6256438;22;20011;-94
2022/07/14 12:41:10;;;;;;;5.07;0.90;;;21.60;99.90;;;;;;6237640;22;20018;-94
2022/07/14 12:43:42;;;;;;;2.83;0.90;;;22.10;99.90;;;;;;6253921;22;20012;-93
2022/07/14 12:46:18;;;;;;;2.22;0.80;;;21.40;99.90;;;;;;6228252;22;20453;-95
2022/07/14 12:48:51;;;;;;;2.97;1.10;;;20.80;99.90;;;;;;6257168;22;20022;-95
2022/07/14 12:51:20;;;;;;;2.80;0.98;;;20.40;99.90;;;;;;6228052;22;20090;-96
2022/07/14 12:54:09;;;;;;;1.88;0.70;;;20.10;99.90;;;;;;6230451;22;20022;-94
2022/07/14 12:56:38;;;;;;;2.10;0.93;;;20.10;99.90;;;;;;6230838;22;20043;-95
2022/07/14 12:59:08;;;;;;;4.68;1.33;;;19.80;99.90;;;;;;6229205;22;20026;-93
2022/07/14 13:01:49;;;;;;;2.53;0.93;;;19.80;99.90;;;;;;6231051;22;20031;-96
2022/07/14 13:04:39;;;;;;;2.10;0.82;;;19.80;99.90;;;;;;6229140;22;20337;-93
2022/07/14 13:07:19;;;;;;;3.65;0.80;;;19.50;99.90;;;;;;6229711;22;20065;-95
2022/07/14 13:10:17;;;;;;;2.70;0.88;;;19.60;99.90;;;;;;6228697;22;20392;-94
2022/07/14 13:12:50;;;;;;;2.60;0.95;;;19.70;99.90;;;;;;6228942;22;20016;-93
2022/07/14 13:15:24;;;;;;;3.88;0.80;;;19.70;99.90;;;;;;6228858;22;20047;-95
2022/07/14 13:18:02;;;;;;;2.97;1.10;;;19.60;99.90;;;;;;6223601;23;20000;-93
2022/07/14 13:20:46;;;;;;;3.45;0.98;;;19.40;99.90;;;;;;6223482;23;20111;-93
2022/07/14 13:23:42;;;;;;;3.70;1.25;;;19.40;99.90;;;;;;6224325;23;20015;-93
2022/07/14 13:26:11;;;;;;;6.03;1.10;;;19.40;99.90;;;;;;6181036;23;20054;-93
2022/07/14 13:28:42;;;;;;;3.10;0.88;;;19.40;99.90;;;;;;6222822;23;20065;-93
2022/07/14 13:31:11;;;;;;;2.80;1.17;;;20.30;99.90;;;;;;6223095;23;20053;-95
2022/07/14 13:33:40;;;;;;;2.55;0.90;;;20.50;99.90;;;;;;6221773;23;20410;-94
2022/07/14 13:36:08;;;;;;;3.30;1.05;;;21.10;99.90;;;;;;6223736;23;20073;-95
2022/07/14 13:38:36;;;;;;;2.17;0.90;;;21.70;99.90;;;;;;6199703;23;20012;-94
2022/07/14 13:41:04;;;;;;;3.95;1.10;;;22.00;99.90;;;;;;6195981;23;20047;-93
2022/07/14 13:43:30;;;;;;;2.35;0.90;;;22.20;99.90;;;;;;6221198;23;20012;-94
2022/07/14 13:45:57;;;;;;;3.28;1.10;;;21.80;99.90;;;;;;6195459;23;20012;-90
2022/07/14 13:48:26;;;;;;;2.72;0.77;;;21.30;99.90;;;;;;6196141;23;20117;-90
2022/07/14 13:53:36;;;;;;;;;;;20.70;99.90;;;;;;6226653;23;20431;-92
2022/07/14 13:56:03;;;;;;;3.33;0.73;;;20.50;99.90;;;;;;6221814;23;19965;-90
2022/07/14 13:58:29;;;;;;;3.22;0.80;;;20.20;99.90;;;;;;6196081;23;20473;-90
2022/07/14 14:00:55;;;;;;;2.13;0.80;;;19.90;99.90;;;;;;6196499;23;20013;-90
2022/07/14 14:03:26;;;;;;;1.65;0.80;;;19.80;99.90;;;;;;6221125;23;20036;-91
2022/07/14 14:05:59;;;;;;;3.38;1.17;;;19.50;99.90;;;;;;6196384;23;20012;-92
2022/07/14 14:08:28;;;;;;;2.42;1.08;;;19.60;99.90;;;;;;6220776;23;20015;-92
2022/07/14 14:10:55;;;;;;;2.83;0.80;;;19.80;99.90;;;;;;6220568;23;20043;-91
2022/07/14 14:13:22;;;;;;;2.63;0.90;;;20.50;99.90;;;;;;6220808;23;20035;-90
2022/07/14 14:15:49;;;;;;;4.47;1.40;;;20.60;99.90;;;;;;6219744;23;20016;-92
2022/07/14 14:18:16;;;;;;;2.33;0.82;;;21.40;99.90;;;;;;6218270;23;20020;-91
2022/07/14 14:20:43;;;;;;;2.78;1.00;;;22.10;99.90;;;;;;6218957;23;20016;-91
2022/07/14 14:23:09;;;;;;;8.77;0.90;;;22.10;99.90;;;;;;6196134;23;20012;-91
2022/07/14 14:25:37;;;;;;;3.33;0.90;;;22.40;99.90;;;;;;6195004;23;20012;-92
2022/07/14 14:28:07;;;;;;;4.20;0.90;;;23.60;99.90;;;;;;6219368;23;20445;-90
2022/07/14 14:30:34;;;;;;;2.65;0.82;;;23.30;99.90;;;;;;6221237;23;20020;-90
2022/07/14 14:33:00;;;;;;;2.47;0.90;;;22.50;99.90;;;;;;6221412;23;20019;-90
2022/07/14 14:35:26;;;;;;;1.85;0.82;;;21.70;99.90;;;;;;6217322;23;20016;-88
2022/07/14 14:37:52;;;;;;;3.22;1.00;;;21.00;99.90;;;;;;6216106;23;20023;-87
2022/07/14 14:40:19;;;;;;;1.60;0.80;;;20.80;99.90;;;;;;6244726;23;20012;-91
2022/07/14 14:42:47;;;;;;;5.03;0.90;;;21.20;99.90;;;;;;6219585;23;20012;-90
2022/07/14 14:45:13;;;;;;;2.47;0.70;;;21.20;99.90;;;;;;6218426;23;20420;-89
2022/07/14 14:47:40;;;;;;;2.00;0.80;;;21.10;99.90;;;;;;6219693;23;20524;-91